Time;durP1;ratioP1;P1;durP2;ratioP2;P2;SDS_P1;SDS_P2;PMS_P1;PMS_P2;Temp;Humidity;BMP_temperature;BMP_pressure;BME280_temperature;BME280_humidity;BME280_pressure;Samples;Min_cycle;Max_cycle;Signal;HPM_P1;HPM_P2
2021/04/05 00:01:29;;;;;;;7.57;2.75;;;;;;;22.93;47.60;98314.28;5072805;28;20371;-61
2021/04/05 00:03:55;;;;;;;10.88;3.60;;;;;;;22.94;48.55;98319.50;5072562;28;20082;-62
2021/04/05 00:06:22;;;;;;;8.88;2.60;;;;;;;22.94;48.77;98300.31;5072464;28;20268;-61
2021/04/05 00:08:47;;;;;;;7.40;2.47;;;;;;;22.89;49.15;98283.84;5072478;28;20021;-62
2021/04/05 00:11:13;;;;;;;7.45;2.50;;;;;;;22.64;49.18;98286.34;5072241;28;20029;-61
2021/04/05 00:13:41;;;;;;;7.28;2.42;;;;;;;22.55;49.44;98276.97;5072404;28;20024;-61
2021/04/05 00:16:07;;;;;;;8.23;2.33;;;;;;;22.46;48.94;98285.63;5072127;28;20410;-61
2021/04/05 00:18:32;;;;;;;5.65;2.13;;;;;;;22.44;48.72;98282.34;5072735;28;20471;-61
2021/04/05 00:21:04;;;;;;;4.97;2.35;;;;;;;22.38;49.27;98256.00;5072250;28;20532;-62
2021/04/05 00:23:29;;;;;;;6.75;2.38;;;;;;;22.36;48.50;98255.44;5072376;28;20131;-61
2021/04/05 00:25:55;;;;;;;8.45;3.20;;;;;;;22.34;48.95;98260.38;5072151;28;20414;-62
2021/04/05 00:28:20;;;;;;;7.53;2.38;;;;;;;22.30;48.73;98226.38;5072148;28;20036;-61
2021/04/05 00:30:45;;;;;;;7.07;2.47;;;;;;;22.28;48.83;98217.59;5072274;28;20025;-61
2021/04/05 00:33:11;;;;;;;8.07;2.42;;;;;;;22.29;48.38;98213.78;5054072;28;20048;-62
2021/04/05 00:35:39;;;;;;;6.88;2.28;;;;;;;22.28;48.11;98209.38;5072044;28;20165;-62
2021/04/05 00:38:07;;;;;;;5.68;2.42;;;;;;;22.27;48.96;98204.19;5071973;28;20058;-62
2021/04/05 00:40:59;;;;;;;9.48;2.72;;;;;;;22.26;48.14;98203.34;5072263;28;20116;-61
2021/04/05 00:43:26;;;;;;;4.38;2.40;;;;;;;22.24;48.04;98200.06;5072065;28;20020;-62
2021/04/05 00:45:52;;;;;;;9.60;2.70;;;;;;;22.24;48.02;98191.03;5072252;28;20440;-61
2021/04/05 00:48:18;;;;;;;9.75;3.67;;;;;;;22.25;47.37;98193.50;5071768;28;20460;-61
2021/04/05 00:51:11;;;;;;;7.93;2.42;;;;;;;22.25;47.25;98193.50;5072099;28;20039;-62
2021/04/05 00:53:40;;;;;;;8.18;2.92;;;;;;;22.24;47.39;98191.03;5072069;28;20154;-61
2021/04/05 00:56:07;;;;;;;9.45;2.67;;;;;;;22.23;47.17;98170.22;5071572;28;20430;-62
2021/04/05 00:58:33;;;;;;;4.43;1.90;;;;;;;22.19;47.31;98169.91;5073507;28;20529;-61
2021/04/05 01:01:01;;;;;;;9.02;2.80;;;;;;;22.18;47.24;98157.31;5075651;28;20036;-62
2021/04/05 01:03:29;;;;;;;7.43;2.10;;;;;;;22.16;46.99;98159.47;5075929;28;20023;-62
2021/04/05 01:06:17;;;;;;;6.47;2.03;;;;;;;22.16;47.08;98164.94;5075682;28;20020;-61
2021/04/05 01:08:43;;;;;;;5.57;2.15;;;;;;;22.16;47.22;98164.94;5075629;28;20025;-61
2021/04/05 01:11:11;;;;;;;9.25;2.42;;;;;;;22.13;47.01;98151.78;5075461;28;20386;-62
2021/04/05 01:13:36;;;;;;;8.68;2.30;;;;;;;22.15;46.82;98155.91;5075654;28;20044;-61
2021/04/05 01:16:02;;;;;;;6.50;2.63;;;;;;;22.13;47.21;98138.94;5075255;28;20075;-62
2021/04/05 01:18:28;;;;;;;4.20;2.25;;;;;;;22.15;47.12;98147.69;5075382;28;20072;-61
2021/04/05 01:20:55;;;;;;;5.82;2.28;;;;;;;22.15;47.63;98150.44;5075413;28;20475;-61
2021/04/05 01:23:21;;;;;;;5.82;2.30;;;;;;;22.13;47.51;98133.47;5075219;28;20115;-61
2021/04/05 01:25:47;;;;;;;8.85;2.63;;;;;;;22.15;46.90;98130.47;5074985;28;20502;-62
2021/04/05 01:28:12;;;;;;;5.85;2.28;;;;;;;22.13;47.40;98121.69;5074753;28;20033;-61
2021/04/05 01:30:43;;;;;;;7.80;2.70;;;;;;;22.13;47.53;98097.91;5075311;28;20490;-62
2021/04/05 01:33:19;;;;;;;5.93;2.55;;;;;;;22.13;47.32;98102.53;5075009;28;20381;-62
2021/04/05 01:35:48;;;;;;;8.18;2.15;;;;;;;22.11;47.18;98091.03;5074957;28;20048;-62
2021/04/05 01:38:15;;;;;;;10.77;2.80;;;;;;;22.14;47.41;98082.31;5074874;28;20024;-61
2021/04/05 01:40:51;;;;;;;9.82;2.45;;;;;;;22.15;47.40;98081.22;5057102;28;20028;-62
2021/04/05 01:43:17;;;;;;;7.18;2.58;;;;;;;22.13;47.30;98069.72;5074885;28;20145;-61
2021/04/05 01:45:43;;;;;;;6.53;2.03;;;;;;;22.14;47.22;98052.22;5074998;28;20552;-61
2021/04/05 01:48:11;;;;;;;6.30;2.40;;;;;;;22.14;47.07;98036.63;5074642;28;20020;-62
2021/04/05 01:50:37;;;;;;;5.72;2.13;;;;;;;22.17;47.00;98043.47;5074924;28;20025;-61
2021/04/05 01:53:05;;;;;;;6.22;2.42;;;;;;;22.17;46.69;98027.91;5074700;28;20021;-62
2021/04/05 01:55:34;;;;;;;7.43;2.33;;;;;;;22.18;46.87;98020.53;5056519;28;20029;-61
2021/04/05 01:58:01;;;;;;;6.13;2.30;;;;;;;22.19;46.45;98006.59;5074434;28;20486;-62
2021/04/05 02:00:30;;;;;;;7.25;2.83;;;;;;;22.19;46.29;98005.75;5074610;28;20422;-61
2021/04/05 02:02:56;;;;;;;6.85;2.38;;;;;;;22.18;46.52;98001.38;5074570;28;20031;-62
2021/04/05 02:05:25;;;;;;;8.90;2.75;;;;;;;22.19;46.77;97956.50;5074823;28;20021;-61
2021/04/05 02:07:51;;;;;;;6.07;2.05;;;;;;;22.22;47.48;97983.34;5074575;28;20127;-61
2021/04/05 02:10:20;;;;;;;6.20;2.55;;;;;;;22.25;48.05;97977.31;5073749;28;20024;-62
2021/04/05 02:12:46;;;;;;;8.50;2.50;;;;;;;22.25;48.17;97976.50;5074405;28;20107;-61
2021/04/05 02:15:13;;;;;;;8.77;2.55;;;;;;;22.26;48.59;97975.41;5074181;28;20113;-62
2021/04/05 02:17:39;;;;;;;8.85;2.47;;;;;;;22.27;48.48;97975.16;5056409;28;20033;-61
2021/04/05 02:20:07;;;;;;;6.68;2.30;;;;;;;22.29;49.68;97955.72;5074011;28;20025;-62
2021/04/05 02:22:34;;;;;;;7.53;3.08;;;;;;;22.28;49.35;97976.78;5074305;28;20028;-61
2021/04/05 02:24:59;;;;;;;8.35;2.65;;;;;;;22.33;49.85;97979.53;5073609;28;20547;-61
2021/04/05 02:27:25;;;;;;;11.68;3.38;;;;;;;22.34;49.25;97983.97;5073851;28;20061;-62
2021/04/05 02:29:51;;;;;;;8.98;2.58;;;;;;;22.34;49.21;97973.00;5074201;28;20054;-61
2021/04/05 02:32:17;;;;;;;9.75;2.58;;;;;;;22.31;50.31;97987.19;5074030;28;20051;-62
2021/04/05 02:34:42;;;;;;;5.72;2.17;;;;;;;22.24;50.13;97992.09;5073767;28;20522;-61
2021/04/05 02:37:07;;;;;;;5.78;2.22;;;;;;;22.18;51.83;97977.56;5073685;28;20028;-63
2021/04/05 02:39:33;;;;;;;9.10;3.30;;;;;;;22.22;51.55;97975.13;5074016;28;20020;-61
2021/04/05 02:41:58;;;;;;;7.75;2.83;;;;;;;22.25;52.23;97960.91;5073867;28;20024;-61
2021/04/05 02:44:24;;;;;;;6.10;2.88;;;;;;;22.29;52.42;97945.59;5073653;28;20116;-62
2021/04/05 02:46:50;;;;;;;8.07;2.72;;;;;;;22.33;52.08;97949.44;5073738;28;20031;-61
2021/04/05 02:49:18;;;;;;;5.93;2.10;;;;;;;22.14;51.41;97948.25;5073556;28;20527;-62
2021/04/05 02:51:46;;;;;;;5.20;1.90;;;;;;;22.02;50.21;97933.94;5073503;28;20513;-61
2021/04/05 02:54:13;;;;;;;9.50;2.40;;;;;;;21.97;49.46;97840.91;5073272;28;20096;-62
2021/04/05 02:56:39;;;;;;;5.55;1.98;;;;;;;21.94;49.48;97836.81;5073556;28;20032;-62
2021/04/05 02:59:06;;;;;;;4.55;2.63;;;;;;;21.92;48.91;97825.31;5073328;28;20063;-61
2021/04/05 03:01:32;;;;;;;5.80;2.05;;;;;;;21.93;48.93;97975.47;5073503;28;20069;-62
2021/04/05 03:03:58;;;;;;;5.90;1.83;;;;;;;21.88;48.10;97909.81;5073453;28;20035;-61
2021/04/05 03:06:26;;;;;;;6.28;2.20;;;;;;;21.87;47.78;97899.94;5073247;28;20016;-62
2021/04/05 03:08:51;;;;;;;8.15;2.03;;;;;;;21.85;47.82;97885.72;5073314;28;20026;-61
2021/04/05 03:11:20;;;;;;;8.43;2.08;;;;;;;21.85;47.67;97877.53;5055195;28;20421;-62
2021/04/05 03:13:45;;;;;;;7.90;2.25;;;;;;;21.83;47.42;97887.88;5073357;28;20487;-62
2021/04/05 03:16:14;;;;;;;7.93;2.28;;;;;;;21.81;47.47;97868.19;5072841;28;20028;-62
2021/04/05 03:18:40;;;;;;;6.32;1.80;;;;;;;21.81;47.41;97870.09;5073500;28;20460;-62
2021/04/05 03:21:10;;;;;;;5.68;2.28;;;;;;;21.81;47.42;97865.44;5072364;28;20038;-61
2021/04/05 03:23:36;;;;;;;6.60;1.90;;;;;;;21.80;47.42;97852.03;5072726;28;20059;-62
2021/04/05 03:26:02;;;;;;;5.95;1.90;;;;;;;21.79;47.44;97843.03;5072780;28;20034;-61
2021/04/05 03:28:27;;;;;;;8.75;2.72;;;;;;;21.80;47.34;97836.47;5073042;28;20389;-62
2021/04/05 03:31:00;;;;;;;8.55;2.40;;;;;;;21.80;47.83;97830.16;5055300;28;20024;-62
2021/04/05 03:33:34;;;;;;;9.50;2.45;;;;;;;21.81;47.55;97834.56;5072874;28;20055;-62
2021/04/05 03:36:05;;;;;;;8.13;2.60;;;;;;;21.79;47.44;97820.31;5072552;28;20076;-63
2021/04/05 03:38:32;;;;;;;7.25;2.15;;;;;;;21.78;47.91;97808.56;5072887;28;20024;-61
2021/04/05 03:41:01;;;;;;;7.15;2.03;;;;;;;21.78;48.02;97796.81;5072766;28;20031;-62
2021/04/05 03:43:31;;;;;;;5.88;2.15;;;;;;;21.79;47.59;97804.75;5072620;28;20035;-62
2021/04/05 03:46:01;;;;;;;8.82;3.13;;;;;;;21.78;47.93;97803.09;5072734;28;20036;-62
2021/04/05 03:48:39;;;;;;;6.20;2.15;;;;;;;21.81;47.40;97796.28;5072984;28;20349;-62
2021/04/05 03:51:12;;;;;;;8.57;2.78;;;;;;;21.81;47.96;97779.88;5072037;28;20028;-62
2021/04/05 03:53:48;;;;;;;8.02;2.10;;;;;;;21.81;47.46;97786.16;5072758;28;20108;-61
2021/04/05 03:56:17;;;;;;;5.55;2.28;;;;;;;21.82;47.21;97776.88;5072563;28;20025;-62
2021/04/05 03:58:50;;;;;;;7.40;2.47;;;;;;;21.85;47.15;97765.41;5072578;28;20510;-62
2021/04/05 04:01:20;;;;;;;6.38;2.22;;;;;;;21.70;47.83;97772.72;5072334;28;20071;-62
2021/04/05 04:03:59;;;;;;;6.07;2.40;;;;;;;23.19;44.78;97723.44;5072605;28;20078;-62
2021/04/05 04:06:31;;;;;;;8.38;3.03;;;;;;;23.24;46.02;97759.84;5072312;28;20141;-62
2021/04/05 04:08:57;;;;;;;7.82;2.30;;;;;;;23.48;46.80;97770.19;5072380;28;20490;-62
2021/04/05 04:11:27;;;;;;;7.88;2.75;;;;;;;23.82;46.70;97784.09;5072349;28;20047;-61
2021/04/05 04:13:54;;;;;;;7.88;2.55;;;;;;;24.07;45.92;97819.69;5072505;28;20024;-62
2021/04/05 04:16:20;;;;;;;6.85;2.42;;;;;;;24.24;44.81;97811.91;5054162;28;20058;-62
2021/04/05 04:18:46;;;;;;;10.10;3.03;;;;;;;24.35;43.89;97803.63;5054652;28;20026;-62
2021/04/05 04:21:13;;;;;;;5.40;2.55;;;;;;;24.38;43.78;97783.88;5071862;28;20028;-61
2021/04/05 04:23:39;;;;;;;7.15;2.67;;;;;;;24.51;42.91;97783.22;5072720;28;20070;-62
2021/04/05 04:26:05;;;;;;;7.80;2.22;;;;;;;24.54;42.47;97767.03;5072108;28;20407;-62
2021/04/05 04:28:31;;;;;;;6.10;2.55;;;;;;;24.67;42.47;97776.50;5072303;28;20044;-61
2021/04/05 04:30:57;;;;;;;9.15;2.78;;;;;;;24.67;42.53;97781.19;5072178;28;20097;-62
2021/04/05 04:33:26;;;;;;;8.32;2.72;;;;;;;24.73;42.08;97791.06;5055711;28;20398;-62
2021/04/05 04:35:52;;;;;;;5.55;2.55;;;;;;;24.78;42.23;97789.06;5076060;28;20086;-62
2021/04/05 04:38:21;;;;;;;5.55;2.13;;;;;;;24.77;41.65;97786.63;5075931;28;20336;-62
2021/04/05 04:40:47;;;;;;;7.00;2.30;;;;;;;24.83;41.66;97789.03;5076195;28;20103;-62
2021/04/05 04:43:12;;;;;;;6.85;2.97;;;;;;;24.92;42.35;97794.75;5075904;28;20031;-62
2021/04/05 04:45:38;;;;;;;8.30;3.10;;;;;;;25.02;42.81;97791.91;5076126;28;20028;-61
2021/04/05 04:48:03;;;;;;;8.93;2.50;;;;;;;25.13;43.08;97792.66;5075795;28;20107;-62
2021/04/05 04:50:29;;;;;;;10.35;2.70;;;;;;;25.15;43.18;97793.19;5075774;28;20036;-61
2021/04/05 04:52:55;;;;;;;10.15;2.90;;;;;;;25.19;43.48;97781.34;5075873;28;20074;-61
2021/04/05 04:55:22;;;;;;;10.55;2.88;;;;;;;25.23;43.86;97789.00;5076045;28;20095;-61
2021/04/05 04:57:47;;;;;;;8.38;2.97;;;;;;;25.24;44.19;97793.41;5075884;28;20108;-61
2021/04/05 05:00:13;;;;;;;8.55;2.92;;;;;;;25.25;44.32;97790.34;5075483;28;20120;-62
2021/04/05 05:02:42;;;;;;;7.60;2.72;;;;;;;25.31;44.19;97797.44;5075773;28;20024;-61
2021/04/05 05:05:11;;;;;;;7.57;2.65;;;;;;;25.34;44.63;97774.03;5075500;28;20099;-61
2021/04/05 05:07:39;;;;;;;9.05;2.90;;;;;;;25.39;45.08;97772.06;5075772;28;20067;-61
2021/04/05 05:10:06;;;;;;;7.28;2.97;;;;;;;25.42;44.83;97787.16;5075377;28;20352;-62
2021/04/05 05:12:33;;;;;;;11.35;3.85;;;;;;;25.53;44.94;97776.88;5075548;28;20071;-61
2021/04/05 05:14:59;;;;;;;9.05;3.00;;;;;;;25.48;44.88;97770.31;5075407;28;20155;-61
2021/04/05 05:17:24;;;;;;;11.55;3.03;;;;;;;25.55;44.91;97742.47;5075339;28;20533;-61
2021/04/05 05:19:51;;;;;;;10.25;2.83;;;;;;;25.59;45.19;97743.53;5075068;28;20040;-61
2021/04/05 05:22:19;;;;;;;12.40;3.63;;;;;;;25.58;45.44;97736.38;5075190;28;20021;-61
2021/04/05 05:24:47;;;;;;;8.85;2.95;;;;;;;25.60;45.11;97733.34;5075255;28;20487;-61
2021/04/05 05:27:14;;;;;;;11.35;3.28;;;;;;;25.65;45.25;97725.03;5075210;28;20029;-62
2021/04/05 05:29:40;;;;;;;10.35;3.33;;;;;;;25.69;45.16;97726.09;5075307;28;20028;-61
2021/04/05 05:32:07;;;;;;;8.55;3.13;;;;;;;25.73;44.92;97738.19;5074977;28;20021;-61
2021/04/05 05:34:32;;;;;;;9.60;3.20;;;;;;;25.79;45.05;97732.31;5075104;28;20070;-61
2021/04/05 05:36:58;;;;;;;10.57;4.38;;;;;;;25.85;44.72;97730.28;5074894;28;20491;-61
2021/04/05 05:39:25;;;;;;;8.82;3.40;;;;;;;25.79;44.45;97714.97;5074983;28;20050;-61
2021/04/05 05:42:12;;;;;;;9.63;3.58;;;;;;;25.83;44.72;97718.78;5057188;28;20024;-61
2021/04/05 05:44:45;;;;;;;8.80;3.45;;;;;;;25.82;44.85;97714.38;5074061;28;20031;-61
2021/04/05 05:47:22;;;;;;;8.88;2.83;;;;;;;25.78;44.17;97705.09;5074782;28;20016;-61
2021/04/05 05:50:01;;;;;;;6.68;2.55;;;;;;;25.63;44.34;97705.25;5074667;28;20032;-61
2021/04/05 05:52:40;;;;;;;5.65;2.08;;;;;;;25.62;44.65;97714.63;5074760;28;20066;-61
2021/04/05 05:55:30;;;;;;;10.00;3.00;;;;;;;25.62;43.33;97726.44;5074742;28;20032;-62
2021/04/05 05:58:02;;;;;;;7.53;2.88;;;;;;;25.58;43.75;97719.06;5074661;28;20047;-61
2021/04/05 06:00:32;;;;;;;6.75;2.75;;;;;;;25.64;43.47;97726.13;5074621;28;20025;-61
2021/04/05 06:03:23;;;;;;;7.07;2.45;;;;;;;25.70;43.00;97722.25;5055642;28;20376;-61
2021/04/05 06:06:18;;;;;;;6.00;2.55;;;;;;;25.61;42.57;97723.97;5074353;28;20024;-64
2021/04/05 06:08:49;;;;;;;9.75;3.35;;;;;;;25.60;42.40;97727.84;5061919;28;20067;-62
2021/04/05 06:11:26;;;;;;;6.63;2.42;;;;;;;25.59;41.93;97720.72;5073624;28;20402;-61
2021/04/05 06:14:07;;;;;;;10.20;2.90;;;;;;;25.68;42.07;97708.78;5073993;28;21667;-65
2021/04/05 06:16:44;;;;;;;10.27;2.80;;;;;;;25.70;41.67;97716.75;5074340;28;20035;-62
2021/04/05 06:19:27;;;;;;;6.57;2.33;;;;;;;25.61;42.11;97756.97;5074968;28;20036;-63
2021/04/05 06:22:04;;;;;;;5.90;2.40;;;;;;;25.60;41.32;97714.09;5074042;28;20353;-66
2021/04/05 06:24:45;;;;;;;6.55;1.60;;;;;;;25.65;40.30;97747.03;5074144;28;20024;-64
2021/04/05 06:27:20;;;;;;;4.20;1.60;;;;;;;25.40;39.98;97740.72;5074733;28;20025;-67
2021/04/05 06:30:10;;;;;;;6.78;1.60;;;;;;;25.45;39.64;97748.91;5073507;28;20068;-68
2021/04/05 06:32:53;;;;;;;4.47;1.55;;;;;;;25.41;39.68;97758.84;5073287;28;20020;-67
2021/04/05 06:35:36;;;;;;;4.72;1.70;;;;;;;25.44;39.48;97784.94;5073078;28;20044;-68
2021/04/05 06:38:24;;;;;;;3.67;1.35;;;;;;;25.32;39.92;97760.59;5073593;28;20033;-68
2021/04/05 06:40:52;;;;;;;2.33;0.93;;;;;;;25.36;40.49;97785.56;5073035;28;20020;-64
2021/04/05 06:43:43;;;;;;;4.70;1.05;;;;;;;25.54;40.16;97778.53;5055128;28;20048;-62
2021/04/05 06:46:31;;;;;;;5.68;0.93;;;;;;;25.39;39.71;97788.56;5069383;28;20044;-62
2021/04/05 06:49:16;;;;;;;3.20;1.08;;;;;;;25.41;40.00;97811.09;5072972;28;20024;-63
2021/04/05 06:52:07;;;;;;;4.07;1.15;;;;;;;25.41;39.67;97802.84;5073525;28;20024;-63
2021/04/05 06:54:50;;;;;;;2.67;1.13;;;;;;;25.53;39.44;97796.13;5073944;28;20540;-62
2021/04/05 06:57:26;;;;;;;3.55;1.17;;;;;;;25.34;39.42;97821.59;5070080;28;20518;-62
2021/04/05 07:00:00;;;;;;;4.13;1.20;;;;;;;25.39;39.22;97821.56;5053551;28;20059;-61
2021/04/05 07:02:47;;;;;;;5.60;1.33;;;;;;;25.35;39.09;97831.47;5075739;28;20032;-61
2021/04/05 07:05:28;;;;;;;4.30;1.23;;;;;;;25.40;39.24;97847.13;5072807;28;20032;-62
2021/04/05 07:08:04;;;;;;;4.65;1.20;;;;;;;25.47;39.24;97856.66;5072675;28;20403;-61
2021/04/05 07:10:35;;;;;;;3.28;1.00;;;;;;;25.36;40.31;97849.66;5073063;28;20070;-61
2021/04/05 07:13:06;;;;;;;4.03;1.35;;;;;;;25.43;39.22;97850.13;5076137;28;20111;-62
2021/04/05 07:15:55;;;;;;;3.65;1.30;;;;;;;25.38;39.64;97852.94;5071596;28;20028;-61
2021/04/05 07:18:51;;;;;;;4.50;1.35;;;;;;;25.37;39.92;97867.78;5054897;28;20357;-61
2021/04/05 07:21:35;;;;;;;5.63;1.65;;;;;;;25.40;40.20;97883.69;5053586;28;20031;-61
2021/04/05 07:24:06;;;;;;;6.60;1.40;;;;;;;25.41;40.40;97884.50;5072278;28;20052;-61
2021/04/05 07:27:09;;;;;;;3.60;1.30;;;;;;;25.38;41.01;97898.84;5055051;28;20024;-61
2021/04/05 07:29:48;;;;;;;7.47;2.15;;;;;;;25.43;41.26;97899.63;5073037;28;20028;-61
2021/04/05 07:32:39;;;;;;;6.95;1.30;;;;;;;25.48;41.74;97896.81;5071929;28;20122;-61
2021/04/05 07:35:10;;;;;;;8.90;2.10;;;;;;;25.46;42.38;97896.28;5071706;28;20119;-62
2021/04/05 07:38:18;;;;;;;5.10;1.20;;;;;;;25.52;41.86;97898.97;5072939;28;20028;-61
2021/04/05 07:40:53;;;;;;;7.03;1.90;;;;;;;25.48;42.70;97904.25;5069070;28;20048;-65
2021/04/05 07:43:21;;;;;;;4.03;1.20;;;;;;;25.63;43.20;97909.59;5072553;28;20024;-63
2021/04/05 07:46:03;;;;;;;4.13;1.50;;;;;;;25.54;42.72;97913.28;5072858;28;20042;-63
2021/04/05 07:48:34;;;;;;;3.85;1.20;;;;;;;25.56;42.20;97911.06;5072814;28;20421;-62
2021/04/05 07:51:14;;;;;;;2.78;1.27;;;;;;;25.57;42.36;97934.72;5071104;28;20064;-62
2021/04/05 07:54:03;;;;;;;5.05;1.17;;;;;;;25.70;41.89;97945.09;5071960;28;20483;-61
2021/04/05 07:56:34;;;;;;;3.65;1.10;;;;;;;25.62;42.19;97945.66;5070025;28;20048;-63
2021/04/05 07:59:37;;;;;;;5.25;1.70;;;;;;;25.65;42.04;97958.81;5064135;28;20036;-63
2021/04/05 08:02:11;;;;;;;3.78;1.27;;;;;;;25.70;41.37;97964.34;5070465;28;20051;-62
2021/04/05 08:05:05;;;;;;;5.95;1.55;;;;;;;25.68;41.08;97967.34;5072585;28;20027;-61
2021/04/05 08:07:52;;;;;;;6.00;2.08;;;;;;;25.80;41.77;97975.22;5072016;28;20345;-62
2021/04/05 08:10:32;;;;;;;7.18;1.60;;;;;;;25.90;42.26;97979.84;5070239;28;20033;-63
2021/04/05 08:13:12;;;;;;;6.88;2.38;;;;;;;25.97;42.84;97969.31;5071165;28;20039;-66
2021/04/05 08:16:03;;;;;;;7.32;2.08;;;;;;;25.99;42.40;97967.91;5067533;28;20020;-65
2021/04/05 08:18:42;;;;;;;6.35;1.60;;;;;;;26.03;42.67;97968.97;5069614;28;20036;-61
2021/04/05 08:21:13;;;;;;;6.53;1.80;;;;;;;25.97;42.54;97970.13;5070167;28;20033;-62
2021/04/05 08:24:03;;;;;;;4.65;1.73;;;;;;;25.97;42.97;97975.63;5083670;28;20020;-61
2021/04/05 08:26:36;;;;;;;3.97;1.20;;;;;;;25.82;42.76;97988.69;5072185;28;20025;-61
2021/04/05 08:29:20;;;;;;;3.63;1.98;;;;;;;25.79;42.93;97979.91;5072047;28;20032;-61
2021/04/05 08:32:16;;;;;;;4.45;1.23;;;;;;;25.68;42.48;98002.28;5068873;28;20025;-62
2021/04/05 08:35:04;;;;;;;5.43;1.80;;;;;;;25.83;41.87;98002.16;5067868;28;20048;-60
2021/04/05 08:37:58;;;;;;;9.07;2.75;;;;;;;25.84;41.81;97998.31;5072083;28;20023;-60
2021/04/05 08:40:38;;;;;;;6.72;1.85;;;;;;;25.93;42.02;98013.09;5069061;28;20047;-60
2021/04/05 08:43:28;;;;;;;9.57;2.63;;;;;;;25.91;41.09;98009.81;5078778;28;20474;-60
2021/04/05 08:46:11;;;;;;;5.78;2.28;;;;;;;25.80;41.60;98019.25;5090635;28;20032;-60
2021/04/05 08:48:39;;;;;;;7.88;2.00;;;;;;;25.80;41.09;98008.25;5075709;28;20016;-60
2021/04/05 08:51:09;;;;;;;7.82;2.78;;;;;;;25.81;41.11;98020.91;5071500;28;20603;-60
2021/04/05 08:53:46;;;;;;;9.98;2.33;;;;;;;25.87;41.29;98029.94;5072053;28;20070;-61
2021/04/05 08:56:14;;;;;;;5.13;2.00;;;;;;;25.85;41.92;98032.97;5068899;28;20068;-60
2021/04/05 08:58:46;;;;;;;8.15;2.15;;;;;;;25.91;41.17;98037.34;5071500;28;20114;-60
2021/04/05 09:01:17;;;;;;;5.88;2.30;;;;;;;25.94;41.29;98041.44;5071441;28;20130;-60
2021/04/05 09:03:46;;;;;;;7.55;2.45;;;;;;;25.97;40.65;98055.44;5069185;28;20032;-60
2021/04/05 09:06:15;;;;;;;7.18;2.00;;;;;;;25.95;41.13;98054.91;5070428;28;20483;-61
2021/04/05 09:08:43;;;;;;;6.45;2.10;;;;;;;25.92;41.23;98061.00;5070464;28;20028;-60
2021/04/05 09:11:09;;;;;;;8.40;3.00;;;;;;;25.97;41.05;98063.69;5071574;28;20023;-61
2021/04/05 09:13:39;;;;;;;6.95;2.33;;;;;;;26.01;40.97;98080.44;5070204;28;20387;-60
2021/04/05 09:16:19;;;;;;;6.63;2.20;;;;;;;26.00;41.21;98079.63;5065984;28;20547;-61
2021/04/05 09:18:50;;;;;;;8.20;2.35;;;;;;;26.02;41.48;98088.41;5064006;28;20024;-61
2021/04/05 09:21:44;;;;;;;6.35;1.83;;;;;;;25.87;41.20;98096.81;5068195;28;20028;-62
2021/04/05 09:24:28;;;;;;;4.55;2.08;;;;;;;25.82;41.72;98094.06;5058538;28;20528;-64
2021/04/05 09:27:18;;;;;;;4.88;1.90;;;;;;;25.69;40.53;98112.03;5072528;28;20074;-62
2021/04/05 09:30:07;;;;;;;4.65;1.48;;;;;;;25.84;40.33;98113.88;5075064;28;20111;-63
2021/04/05 09:32:45;;;;;;;4.18;1.17;;;;;;;25.88;40.90;98103.13;5072209;28;20016;-61
2021/04/05 09:35:24;;;;;;;5.15;1.08;;;;;;;25.90;40.93;98110.00;5069824;28;20045;-60
2021/04/05 09:37:52;;;;;;;3.22;1.33;;;;;;;25.88;41.91;98114.97;5069703;28;20479;-61
2021/04/05 09:40:35;;;;;;;4.05;1.20;;;;;;;25.84;41.23;98108.38;5055670;28;20028;-61
2021/04/05 09:43:38;;;;;;;3.30;0.98;;;;;;;25.81;40.98;98117.19;5064378;28;20032;-62
2021/04/05 09:46:29;;;;;;;2.30;0.93;;;;;;;25.76;40.54;98128.25;5074495;28;20407;-60
2021/04/05 09:49:13;;;;;;;1.80;0.77;;;;;;;25.72;40.11;98132.69;5072030;28;20028;-65
2021/04/05 09:52:03;;;;;;;2.33;0.90;;;;;;;25.73;40.20;98128.81;5070907;28;20486;-65
2021/04/05 09:54:37;;;;;;;2.72;0.95;;;;;;;25.74;39.98;98125.78;5071132;28;20032;-67
2021/04/05 09:57:14;;;;;;;3.83;1.13;;;;;;;25.75;40.60;98132.13;5050559;28;20559;-70
2021/04/05 09:59:48;;;;;;;4.25;1.20;;;;;;;25.77;40.09;98133.47;5050007;28;20365;-65
2021/04/05 10:02:15;;;;;;;4.85;1.20;;;;;;;25.75;40.20;98132.94;5073791;28;20039;-65
2021/04/05 10:04:44;;;;;;;3.92;1.00;;;;;;;25.78;39.49;98143.38;5055315;28;20391;-62
2021/04/05 10:07:11;;;;;;;2.28;1.02;;;;;;;25.81;38.97;98136.47;5067659;28;21383;-69
2021/04/05 10:09:37;;;;;;;4.75;1.50;;;;;;;25.77;39.39;98136.22;5074521;28;20122;-66
2021/04/05 10:12:05;;;;;;;2.20;0.80;;;;;;;25.82;38.72;98145.53;5053289;28;20463;-66
2021/04/05 10:14:31;;;;;;;4.25;1.27;;;;;;;25.86;38.91;98150.19;5073837;28;20380;-67
2021/04/05 10:16:58;;;;;;;5.40;1.30;;;;;;;25.89;38.19;98140.56;5072940;28;20410;-70
2021/04/05 10:19:40;;;;;;;6.53;1.35;;;;;;;25.86;38.15;98139.16;5071480;28;20177;-68
2021/04/05 10:22:13;;;;;;;3.00;1.05;;;;;;;25.95;38.26;98142.97;5073919;28;20024;-66
2021/04/05 10:24:45;;;;;;;5.30;1.92;;;;;;;26.14;38.93;98147.78;5071037;28;20017;-66
2021/04/05 10:27:14;;;;;;;6.65;2.30;;;;;;;26.20;40.65;98150.22;5073168;28;20605;-65
2021/04/05 10:29:42;;;;;;;7.20;2.47;;;;;;;26.28;40.71;98157.06;5074225;28;20029;-65
2021/04/05 10:32:09;;;;;;;7.00;2.50;;;;;;;26.28;40.70;98146.03;5073443;28;20546;-66
2021/04/05 10:34:36;;;;;;;9.02;2.50;;;;;;;26.18;41.06;98140.59;5056000;28;20131;-65
2021/04/05 10:37:08;;;;;;;7.75;2.28;;;;;;;26.20;41.77;98146.63;5073714;28;20036;-65
2021/04/05 10:39:34;;;;;;;5.45;2.30;;;;;;;26.01;42.28;98147.31;5074087;28;20050;-65
2021/04/05 10:42:13;;;;;;;6.60;2.65;;;;;;;26.08;42.09;98153.34;5073825;28;20028;-66
2021/04/05 10:44:45;;;;;;;6.43;2.28;;;;;;;25.99;42.27;98157.81;5073970;28;20020;-66
2021/04/05 10:47:18;;;;;;;10.10;2.10;;;;;;;26.12;41.70;98163.78;5073040;28;20455;-65
2021/04/05 10:49:46;;;;;;;7.43;2.30;;;;;;;25.96;41.76;98166.63;5073031;28;20155;-66
2021/04/05 10:52:19;;;;;;;7.65;2.10;;;;;;;25.95;41.20;98159.50;5055181;28;20067;-66
2021/04/05 10:54:50;;;;;;;6.18;2.00;;;;;;;25.99;41.07;98159.75;5071397;28;20024;-67
2021/04/05 10:57:24;;;;;;;3.97;1.98;;;;;;;26.01;41.02;98168.53;5054994;28;20409;-65
2021/04/05 10:59:52;;;;;;;6.20;2.22;;;;;;;25.95;40.89;98165.00;5072294;28;20395;-66
2021/04/05 11:02:44;;;;;;;5.03;2.00;;;;;;;25.96;40.93;98166.63;5071534;28;20364;-66
2021/04/05 11:05:12;;;;;;;6.38;2.08;;;;;;;25.98;40.91;98167.16;5071311;28;20021;-66
2021/04/05 11:07:39;;;;;;;4.57;1.83;;;;;;;25.98;40.59;98169.94;5072376;28;20013;-65
2021/04/05 11:10:08;;;;;;;6.55;1.95;;;;;;;26.07;40.70;98167.41;5071398;28;20498;-65
2021/04/05 11:12:37;;;;;;;5.68;2.10;;;;;;;26.02;41.01;98176.50;5071808;28;20410;-66
2021/04/05 11:15:06;;;;;;;6.85;2.33;;;;;;;26.13;40.46;98176.44;5067798;28;20028;-66
2021/04/05 11:17:33;;;;;;;7.63;2.67;;;;;;;26.12;40.57;98194.06;5071251;28;20033;-65
2021/04/05 11:20:01;;;;;;;5.00;1.92;;;;;;;26.16;40.67;98184.13;5071808;28;20016;-66
2021/04/05 11:22:28;;;;;;;4.72;1.95;;;;;;;26.13;40.60;98179.19;5071364;28;20530;-66
2021/04/05 11:25:00;;;;;;;8.85;2.20;;;;;;;26.14;41.08;98194.59;5071335;28;20032;-65
2021/04/05 11:27:28;;;;;;;7.75;2.00;;;;;;;26.04;41.26;98201.84;5071306;28;20035;-66
2021/04/05 11:29:57;;;;;;;5.15;2.40;;;;;;;25.99;41.16;98201.84;5061885;28;20552;-66
2021/04/05 11:32:27;;;;;;;4.28;1.75;;;;;;;25.94;41.75;98196.38;5071417;28;20164;-65
2021/04/05 11:34:56;;;;;;;7.30;2.22;;;;;;;26.02;41.49;98204.03;5069636;28;20529;-65
2021/04/05 11:37:26;;;;;;;9.20;2.58;;;;;;;26.05;42.09;98214.50;5070395;28;20029;-69
2021/04/05 11:40:00;;;;;;;5.18;2.00;;;;;;;26.06;41.71;98207.88;5068190;28;20046;-66
2021/04/05 11:42:31;;;;;;;;;;;;;;;26.09;42.38;98198.22;5067798;28;20044;-68
2021/04/05 11:45:01;;;;;;;8.50;2.20;;;;;;;26.09;42.85;98199.03;5069128;28;19912;-66
2021/04/05 11:47:33;;;;;;;10.65;2.20;;;;;;;26.05;42.38;98202.66;5071153;28;20027;-64
2021/04/05 11:49:59;;;;;;;5.32;1.67;;;;;;;26.00;42.19;98205.41;5069696;28;20036;-69
2021/04/05 11:52:42;;;;;;;3.53;1.50;;;;;;;25.97;41.35;98212.31;5069421;28;20085;-68
2021/04/05 11:55:10;;;;;;;4.35;1.45;;;;;;;26.00;41.44;98210.91;5071169;28;20028;-67
2021/04/05 11:57:44;;;;;;;3.75;1.50;;;;;;;25.96;41.03;98202.41;5071121;28;20028;-67
2021/04/05 12:00:11;;;;;;;4.32;1.42;;;;;;;25.91;40.99;98205.22;5069609;28;20024;-68